createdAt,value
2023-10-24T00:00:02.952Z,5.40
2023-10-24T00:02:34.880Z,5.70
2023-10-24T00:05:07.644Z,5.60
2023-10-24T00:07:39.435Z,6.30
2023-10-24T00:10:11.596Z,5.50
2023-10-24T00:12:43.736Z,5.60
2023-10-24T00:15:15.655Z,5.57
2023-10-24T00:17:47.549Z,5.67
2023-10-24T00:20:19.267Z,5.77
2023-10-24T00:22:51.072Z,5.60
2023-10-24T00:25:22.699Z,5.80
2023-10-24T00:27:54.325Z,6.17
2023-10-24T00:30:26.138Z,5.67
2023-10-24T00:32:57.866Z,7.23
2023-10-24T00:35:29.476Z,6.13
2023-10-24T00:38:01.229Z,5.37
2023-10-24T00:40:35.677Z,6.10
2023-10-24T00:43:08.325Z,7.20
2023-10-24T00:45:42.605Z,6.60
2023-10-24T00:48:14.463Z,6.13
2023-10-24T00:50:46.163Z,6.30
2023-10-24T00:53:18.016Z,6.20
2023-10-24T00:55:49.724Z,5.97
2023-10-24T00:58:21.588Z,6.57
2023-10-24T01:00:53.367Z,5.83
2023-10-24T01:03:25.258Z,6.33
2023-10-24T01:05:58.156Z,6.83
2023-10-24T01:08:29.590Z,5.63
2023-10-24T01:11:01.395Z,5.80
2023-10-24T01:13:33.827Z,6.33
2023-10-24T01:16:05.959Z,6.40
2023-10-24T01:18:37.540Z,5.10
2023-10-24T01:21:09.398Z,5.47
2023-10-24T01:23:41.843Z,6.13
2023-10-24T01:26:15.772Z,5.60
2023-10-24T01:28:47.422Z,6.87
2023-10-24T01:31:19.198Z,6.47
2023-10-24T01:33:50.756Z,6.43
2023-10-24T01:36:24.544Z,5.80
2023-10-24T01:38:56.063Z,6.13
2023-10-24T01:41:28.067Z,6.47
2023-10-24T01:43:59.625Z,6.13
2023-10-24T01:46:31.213Z,5.67
2023-10-24T01:49:02.810Z,5.97
2023-10-24T01:51:36.318Z,6.13
2023-10-24T01:54:07.863Z,7.00
2023-10-24T01:56:39.419Z,5.67
2023-10-24T01:59:13.598Z,5.97
2023-10-24T02:01:45.283Z,6.60
2023-10-24T02:04:16.941Z,5.83
2023-10-24T02:06:48.465Z,6.47
2023-10-24T02:09:19.945Z,6.13
2023-10-24T02:11:51.442Z,5.60
2023-10-24T02:14:23.103Z,5.83
2023-10-24T02:16:55.043Z,6.10
2023-10-24T02:19:27.001Z,6.13
2023-10-24T02:21:58.562Z,5.90
2023-10-24T02:24:30.129Z,6.20
2023-10-24T02:27:01.939Z,5.90
2023-10-24T02:29:35.207Z,6.47
2023-10-24T02:32:07.096Z,5.73
2023-10-24T02:34:38.873Z,6.63
2023-10-24T02:37:10.582Z,5.70
2023-10-24T02:39:42.775Z,6.70
2023-10-24T02:42:14.524Z,6.23
2023-10-24T02:44:49.686Z,6.90
2023-10-24T02:47:21.560Z,6.07
2023-10-24T02:49:54.789Z,5.97
2023-10-24T02:52:26.510Z,7.00
2023-10-24T02:54:58.400Z,7.07
2023-10-24T02:57:30.188Z,6.43
2023-10-24T03:00:01.774Z,6.17
2023-10-24T03:02:33.578Z,6.50
2023-10-24T03:05:06.240Z,6.60
2023-10-24T03:07:37.749Z,6.93
2023-10-24T03:10:09.898Z,6.50
2023-10-24T03:12:41.402Z,6.33
2023-10-24T03:15:13.106Z,6.53
2023-10-24T03:17:44.760Z,7.47
2023-10-24T03:20:16.504Z,7.33
2023-10-24T03:22:48.430Z,7.67
2023-10-24T03:25:20.331Z,6.87
2023-10-24T03:27:56.014Z,7.27
2023-10-24T03:30:27.583Z,6.22
2023-10-24T03:32:59.183Z,7.63
2023-10-24T03:35:33.973Z,7.23
2023-10-24T03:38:05.590Z,6.60
2023-10-24T03:40:39.557Z,7.20
2023-10-24T03:43:11.306Z,7.50
2023-10-24T03:45:43.898Z,6.67
2023-10-24T03:48:15.516Z,7.13
2023-10-24T03:50:47.357Z,7.67
2023-10-24T03:53:18.940Z,6.97
2023-10-24T03:55:56.084Z,6.67
2023-10-24T03:58:28.414Z,8.57
2023-10-24T04:01:05.616Z,6.90
2023-10-24T04:03:37.604Z,7.50
2023-10-24T04:06:12.457Z,7.43
2023-10-24T04:08:44.158Z,7.00
2023-10-24T04:11:17.389Z,7.07
2023-10-24T04:13:50.706Z,7.00
2023-10-24T04:16:23.346Z,7.20
2023-10-24T04:18:54.921Z,6.70
2023-10-24T04:21:26.533Z,6.80
2023-10-24T04:23:59.225Z,7.33
2023-10-24T04:26:30.950Z,7.70
2023-10-24T04:29:02.732Z,7.00
2023-10-24T04:31:34.554Z,7.80
2023-10-24T04:34:06.294Z,7.70
2023-10-24T04:36:38.428Z,7.47
2023-10-24T04:39:10.121Z,8.10
2023-10-24T04:41:41.830Z,6.57
2023-10-24T04:44:13.558Z,8.07
2023-10-24T04:46:45.905Z,7.97
2023-10-24T04:49:21.983Z,7.83
2023-10-24T04:54:25.773Z,7.47
2023-10-24T04:56:58.582Z,7.47
2023-10-24T04:59:31.081Z,7.77
2023-10-24T05:02:02.919Z,9.73
2023-10-24T05:04:35.301Z,8.20
2023-10-24T05:07:10.514Z,7.80
2023-10-24T05:09:42.276Z,8.85
2023-10-24T05:12:13.858Z,8.70
2023-10-24T05:14:47.454Z,7.93
2023-10-24T05:17:19.236Z,8.30
2023-10-24T05:19:50.711Z,9.10
2023-10-24T05:22:23.317Z,8.83
2023-10-24T05:24:55.746Z,8.43
2023-10-24T05:27:28.318Z,9.57
2023-10-24T05:29:59.856Z,7.87
2023-10-24T05:32:32.564Z,9.10
2023-10-24T05:35:04.657Z,9.03
2023-10-24T05:37:36.232Z,9.23
2023-10-24T05:40:10.401Z,8.63
2023-10-24T05:42:43.119Z,8.90
2023-10-24T05:45:14.900Z,7.93
2023-10-24T05:47:46.731Z,9.00
2023-10-24T05:50:20.265Z,8.17
2023-10-24T05:52:52.070Z,8.47
2023-10-24T05:55:23.720Z,8.50
2023-10-24T05:57:55.308Z,8.90
2023-10-24T06:00:27.434Z,9.17
2023-10-24T06:03:00.399Z,8.47
2023-10-24T06:05:33.185Z,9.00
2023-10-24T06:08:05.762Z,9.57
2023-10-24T06:10:37.638Z,8.37
2023-10-24T06:13:10.946Z,9.50
2023-10-24T06:15:43.721Z,9.63
2023-10-24T06:18:15.577Z,8.57
2023-10-24T06:20:48.944Z,8.63
2023-10-24T06:23:21.550Z,9.03
2023-10-24T06:25:53.386Z,9.77
2023-10-24T06:28:25.814Z,9.07
2023-10-24T06:31:02.581Z,9.13
2023-10-24T06:33:35.169Z,9.33
2023-10-24T06:36:08.795Z,9.17
2023-10-24T06:38:40.351Z,8.77
2023-10-24T06:41:12.969Z,10.07
2023-10-24T06:43:44.478Z,8.77
2023-10-24T06:46:16.195Z,9.53
2023-10-24T06:48:47.941Z,9.83
2023-10-24T06:51:20.133Z,10.03
2023-10-24T06:53:51.743Z,9.20
2023-10-24T06:56:23.253Z,9.83
2023-10-24T06:58:54.845Z,9.70
2023-10-24T07:01:26.498Z,9.50
2023-10-24T07:03:58.170Z,9.17
2023-10-24T07:06:29.673Z,9.27
2023-10-24T07:09:07.221Z,9.17
2023-10-24T07:11:39.102Z,8.97
2023-10-24T07:14:10.644Z,9.57
2023-10-24T07:16:43.366Z,10.10
2023-10-24T07:19:16.397Z,8.10
2023-10-24T07:21:48.323Z,9.70
2023-10-24T07:24:19.921Z,9.73
2023-10-24T07:26:51.522Z,9.03
2023-10-24T07:29:24.603Z,9.30
2023-10-24T07:31:56.875Z,8.93
2023-10-24T07:34:34.293Z,9.57
2023-10-24T07:37:06.280Z,9.37
2023-10-24T07:39:38.623Z,8.60
2023-10-24T07:42:10.379Z,9.00
2023-10-24T07:44:41.994Z,9.43
2023-10-24T07:47:15.052Z,9.30
2023-10-24T07:49:46.838Z,9.63
2023-10-24T07:52:21.862Z,9.37
2023-10-24T07:54:54.511Z,9.17
2023-10-24T07:57:26.037Z,9.20
2023-10-24T07:59:58.298Z,9.07
2023-10-24T08:02:31.480Z,9.17
2023-10-24T08:05:03.349Z,9.17
2023-10-24T08:07:35.061Z,9.37
2023-10-24T08:10:07.110Z,8.93
2023-10-24T08:12:38.735Z,8.80
2023-10-24T08:15:10.716Z,9.40
2023-10-24T08:17:42.481Z,9.43
2023-10-24T08:20:14.234Z,8.47
2023-10-24T08:22:46.059Z,8.23
2023-10-24T08:25:18.069Z,9.50
2023-10-24T08:27:50.621Z,8.40
2023-10-24T08:30:22.419Z,8.30
2023-10-24T08:32:54.106Z,8.20
2023-10-24T08:35:26.546Z,7.73
2023-10-24T08:38:09.200Z,7.97
2023-10-24T08:40:45.379Z,9.13
2023-10-24T08:45:54.883Z,6.93
2023-10-24T08:48:26.608Z,7.70
2023-10-24T08:50:58.454Z,7.87
2023-10-24T08:53:30.243Z,7.43
2023-10-24T08:56:03.441Z,7.43
2023-10-24T08:58:39.658Z,7.30
2023-10-24T09:03:43.851Z,6.83
2023-10-24T09:06:15.542Z,7.13
2023-10-24T09:08:50.056Z,6.63
2023-10-24T09:11:23.863Z,7.43
2023-10-24T09:13:57.533Z,7.13
2023-10-24T09:16:30.836Z,6.70
2023-10-24T09:19:12.966Z,6.63
2023-10-24T09:22:00.007Z,6.60
2023-10-24T09:24:44.811Z,6.37
2023-10-24T09:27:23.174Z,6.03
2023-10-24T09:29:54.919Z,6.60
2023-10-24T09:32:28.032Z,5.93
2023-10-24T09:35:04.928Z,5.37
2023-10-24T09:37:40.499Z,6.00
2023-10-24T09:40:12.715Z,5.65
2023-10-24T09:42:48.695Z,5.30
2023-10-24T09:45:22.869Z,5.97
2023-10-24T09:47:56.101Z,5.60
2023-10-24T09:50:28.337Z,5.33
2023-10-24T09:53:03.603Z,5.20
2023-10-24T09:55:35.924Z,5.43
2023-10-24T09:58:11.414Z,4.90
2023-10-24T10:00:43.609Z,5.20
2023-10-24T10:03:16.707Z,4.90
2023-10-24T10:05:54.314Z,4.63
2023-10-24T10:08:29.633Z,5.53
2023-10-24T10:11:05.215Z,5.03
2023-10-24T10:13:56.373Z,4.93
2023-10-24T10:17:10.234Z,4.57
2023-10-24T10:20:06.214Z,5.67
2023-10-24T10:22:59.196Z,4.70
2023-10-24T10:25:30.774Z,5.60
2023-10-24T10:28:05.798Z,5.53
2023-10-24T10:30:52.577Z,6.80
2023-10-24T10:33:31.441Z,6.60
2023-10-24T10:36:03.987Z,8.05
2023-10-24T10:38:47.931Z,6.40
2023-10-24T10:41:23.783Z,6.57
2023-10-24T10:46:30.877Z,6.50
2023-10-24T10:49:07.139Z,6.40
2023-10-24T10:51:40.930Z,6.77
2023-10-24T10:54:39.288Z,6.00
2023-10-24T10:57:17.918Z,5.25
2023-10-24T11:00:16.426Z,5.67
2023-10-24T11:03:17.002Z,5.83
2023-10-24T11:05:49.871Z,4.77
2023-10-24T11:08:25.093Z,5.00
2023-10-24T11:10:58.965Z,4.57
2023-10-24T11:13:45.559Z,4.27
2023-10-24T11:16:34.857Z,4.00
2023-10-24T11:19:19.922Z,4.07
2023-10-24T11:21:53.621Z,3.65
2023-10-24T11:24:25.271Z,3.70
2023-10-24T11:26:58.168Z,4.33
2023-10-24T11:29:31.214Z,4.00
2023-10-24T11:32:03.535Z,4.20
2023-10-24T11:34:35.329Z,3.47
2023-10-24T11:37:09.404Z,3.83
2023-10-24T11:39:44.131Z,3.60
2023-10-24T11:42:16.240Z,4.10
2023-10-24T11:44:47.880Z,3.13
2023-10-24T11:47:19.702Z,3.20
2023-10-24T11:49:51.405Z,2.67
2023-10-24T11:52:24.618Z,2.95
2023-10-24T11:54:57.086Z,2.75
2023-10-24T11:57:28.793Z,2.38
2023-10-24T12:00:00.444Z,2.85
2023-10-24T12:02:40.086Z,2.35
2023-10-24T12:05:11.971Z,2.38
2023-10-24T12:07:44.018Z,2.28
2023-10-24T12:10:15.765Z,2.30
2023-10-24T12:12:47.692Z,2.50
2023-10-24T12:15:19.740Z,2.38
2023-10-24T12:17:51.976Z,2.65
2023-10-24T12:20:24.098Z,2.50
2023-10-24T12:22:55.946Z,2.20
2023-10-24T12:25:29.757Z,2.55
2023-10-24T12:28:02.694Z,3.67
2023-10-24T12:30:34.499Z,2.85
2023-10-24T12:33:06.496Z,2.57
2023-10-24T12:35:38.063Z,2.70
2023-10-24T12:38:10.224Z,2.17
2023-10-24T12:40:43.241Z,2.13
2023-10-24T12:43:15.036Z,2.80
2023-10-24T12:45:47.283Z,2.47
2023-10-24T12:48:20.242Z,2.30
2023-10-24T12:50:52.173Z,2.17
2023-10-24T12:53:24.254Z,1.70
2023-10-24T12:55:57.893Z,1.77
2023-10-24T12:58:29.636Z,2.20
2023-10-24T13:01:01.539Z,1.70
2023-10-24T13:03:33.179Z,1.90
2023-10-24T13:06:05.969Z,1.57
2023-10-24T13:08:37.456Z,1.87
2023-10-24T13:11:09.144Z,1.73
2023-10-24T13:13:40.861Z,1.60
2023-10-24T13:16:12.881Z,1.60
2023-10-24T13:18:44.525Z,1.47
2023-10-24T13:21:19.404Z,1.80
2023-10-24T13:23:50.886Z,1.40
2023-10-24T13:26:23.806Z,1.70
2023-10-24T13:28:56.200Z,1.37
2023-10-24T13:31:28.184Z,1.90
2023-10-24T13:36:34.406Z,1.47
2023-10-24T13:39:07.113Z,1.80
2023-10-24T13:41:38.938Z,1.63
2023-10-24T13:44:10.807Z,2.03
2023-10-24T13:46:45.560Z,2.87
2023-10-24T13:49:17.183Z,2.03
2023-10-24T13:51:50.834Z,1.90
2023-10-24T13:54:22.594Z,2.73
2023-10-24T13:56:54.374Z,2.03
2023-10-24T13:59:27.754Z,1.80
2023-10-24T14:01:59.266Z,2.40
2023-10-24T14:04:31.103Z,1.83
2023-10-24T14:07:02.996Z,2.43
2023-10-24T14:09:34.773Z,1.83
2023-10-24T14:12:07.350Z,2.07
2023-10-24T14:14:38.962Z,2.10
2023-10-24T14:17:10.703Z,2.10
2023-10-24T14:19:42.757Z,2.17
2023-10-24T14:22:17.074Z,2.70
2023-10-24T14:24:53.736Z,2.73
2023-10-24T14:27:25.486Z,2.40
2023-10-24T14:29:57.040Z,2.63
2023-10-24T14:32:28.660Z,2.67
2023-10-24T14:35:00.322Z,2.83
2023-10-24T14:37:32.216Z,2.87
2023-10-24T14:40:04.280Z,3.00
2023-10-24T14:42:35.970Z,3.43
2023-10-24T14:45:08.289Z,3.13
2023-10-24T14:47:41.245Z,3.47
2023-10-24T14:50:12.975Z,2.97
2023-10-24T14:52:44.538Z,3.40
2023-10-24T14:55:17.115Z,3.57
2023-10-24T14:57:48.699Z,3.43
2023-10-24T15:00:23.240Z,4.13
2023-10-24T15:02:55.061Z,3.30
2023-10-24T15:05:26.619Z,3.93
2023-10-24T15:07:58.375Z,4.33
2023-10-24T15:10:30.588Z,3.53
2023-10-24T15:13:02.106Z,3.90
2023-10-24T15:15:35.037Z,4.57
2023-10-24T15:18:06.944Z,4.37
2023-10-24T15:20:39.236Z,3.63
2023-10-24T15:23:10.837Z,4.07
2023-10-24T15:25:42.434Z,3.27
2023-10-24T15:28:15.325Z,3.10
2023-10-24T15:30:47.306Z,3.60
2023-10-24T15:33:19.353Z,4.60
2023-10-24T15:35:59.915Z,3.50
2023-10-24T15:38:31.481Z,3.80
2023-10-24T15:41:03.082Z,3.03
2023-10-24T15:43:34.636Z,3.43
2023-10-24T15:46:09.093Z,4.67
2023-10-24T15:48:40.789Z,3.30
2023-10-24T15:51:12.746Z,3.07
2023-10-24T15:53:44.803Z,2.87
2023-10-24T15:56:17.799Z,3.13
2023-10-24T15:58:49.358Z,3.30
2023-10-24T16:01:23.030Z,3.03
2023-10-24T16:03:56.135Z,2.87
2023-10-24T16:06:28.019Z,3.00
2023-10-24T16:08:59.840Z,3.13
2023-10-24T16:11:31.574Z,3.00
2023-10-24T16:14:04.440Z,4.17
2023-10-24T16:16:37.461Z,4.17
2023-10-24T16:19:11.417Z,4.10
2023-10-24T16:21:43.444Z,4.00
2023-10-24T16:24:16.388Z,4.27
2023-10-24T16:26:48.057Z,4.57
2023-10-24T16:29:20.000Z,3.77
2023-10-24T16:31:51.659Z,3.83
2023-10-24T16:34:23.213Z,3.73
2023-10-24T16:36:54.803Z,4.10
2023-10-24T16:39:26.392Z,4.67
2023-10-24T16:41:58.200Z,4.40
2023-10-24T16:44:30.402Z,4.40
2023-10-24T16:47:02.453Z,5.13
2023-10-24T16:49:34.323Z,5.07
2023-10-24T16:52:06.690Z,6.50
2023-10-24T16:54:38.228Z,6.17
2023-10-24T16:57:10.052Z,5.80
2023-10-24T16:59:42.464Z,6.67
2023-10-24T17:02:14.201Z,5.83
2023-10-24T17:04:45.823Z,6.23
2023-10-24T17:07:18.547Z,5.53
2023-10-24T17:09:50.197Z,5.20
2023-10-24T17:12:21.713Z,4.93
2023-10-24T17:14:54.605Z,5.20
2023-10-24T17:17:26.283Z,5.13
2023-10-24T17:19:57.975Z,6.53
2023-10-24T17:22:34.379Z,4.47
2023-10-24T17:25:06.587Z,3.60
2023-10-24T17:27:45.686Z,4.03
2023-10-24T17:30:25.831Z,3.80
2023-10-24T17:32:57.827Z,3.43
2023-10-24T17:35:29.911Z,3.43
2023-10-24T17:38:02.524Z,3.50
2023-10-24T17:40:34.355Z,3.70
2023-10-24T17:43:07.001Z,3.80
2023-10-24T17:45:40.288Z,6.47
2023-10-24T17:48:12.726Z,6.00
2023-10-24T17:50:44.730Z,4.93
2023-10-24T17:53:16.436Z,4.40
2023-10-24T17:55:48.433Z,4.20
2023-10-24T17:58:20.527Z,4.70
2023-10-24T18:00:52.556Z,3.50
2023-10-24T18:03:25.301Z,4.13
2023-10-24T18:05:57.245Z,4.03
2023-10-24T18:08:29.304Z,3.90
2023-10-24T18:11:00.887Z,3.90
2023-10-24T18:13:32.670Z,4.60
2023-10-24T18:16:04.616Z,3.77
2023-10-24T18:18:37.449Z,3.90
2023-10-24T18:21:16.206Z,4.03
2023-10-24T18:23:50.272Z,4.00
2023-10-24T18:26:25.923Z,3.70
2023-10-24T18:28:57.590Z,3.65
2023-10-24T18:31:32.382Z,3.53
2023-10-24T18:34:05.576Z,4.20
2023-10-24T18:36:37.754Z,4.33
2023-10-24T18:39:10.991Z,3.90
2023-10-24T18:41:43.329Z,3.73
2023-10-24T18:44:15.792Z,3.57
2023-10-24T18:46:47.909Z,3.60
2023-10-24T18:49:19.749Z,4.20
2023-10-24T18:51:51.535Z,3.70
2023-10-24T18:54:23.069Z,5.57
2023-10-24T18:56:54.577Z,4.50
2023-10-24T18:59:27.885Z,4.57
2023-10-24T19:01:59.820Z,4.07
2023-10-24T19:04:36.305Z,4.13
2023-10-24T19:07:09.576Z,3.70
2023-10-24T19:09:42.781Z,4.20
2023-10-24T19:12:15.919Z,4.40
2023-10-24T19:14:47.855Z,3.90
2023-10-24T19:17:19.824Z,3.70
2023-10-24T19:19:52.847Z,4.30
2023-10-24T19:22:26.743Z,3.97
2023-10-24T19:24:59.282Z,4.10
2023-10-24T19:27:31.389Z,3.97
2023-10-24T19:30:04.763Z,4.30
2023-10-24T19:32:36.733Z,4.53
2023-10-24T19:35:09.820Z,3.83
2023-10-24T19:37:46.609Z,3.53
2023-10-24T19:40:18.674Z,4.13
2023-10-24T19:42:51.804Z,4.80
2023-10-24T19:45:23.645Z,4.30
2023-10-24T19:48:06.888Z,4.00
2023-10-24T19:50:46.511Z,4.53
2023-10-24T19:53:19.012Z,4.67
2023-10-24T19:55:56.381Z,5.00
2023-10-24T19:58:34.678Z,4.67
2023-10-24T20:01:08.126Z,4.50
2023-10-24T20:06:13.815Z,4.30
2023-10-24T20:08:46.311Z,4.93
2023-10-24T20:12:31.509Z,4.60
2023-10-24T20:14:10.214Z,4.80
2023-10-24T20:16:44.491Z,4.67
2023-10-24T20:19:20.818Z,4.00
2023-10-24T20:21:52.894Z,4.40
2023-10-24T20:24:24.768Z,4.43
2023-10-24T20:26:59.205Z,4.50
2023-10-24T20:29:30.998Z,4.40
2023-10-24T20:32:04.103Z,4.50
2023-10-24T20:34:35.875Z,5.10
2023-10-24T20:37:07.705Z,4.17
2023-10-24T20:39:39.410Z,4.87
2023-10-24T20:42:11.343Z,4.70
2023-10-24T20:44:43.206Z,4.80
2023-10-24T20:47:15.552Z,5.10
2023-10-24T20:49:47.793Z,4.87
2023-10-24T20:52:20.787Z,4.53
2023-10-24T20:54:53.129Z,5.30
2023-10-24T20:57:24.848Z,5.43
2023-10-24T20:59:57.490Z,4.73
2023-10-24T21:02:29.374Z,4.73
2023-10-24T21:05:02.508Z,5.70
2023-10-24T21:07:34.166Z,5.57
2023-10-24T21:10:06.431Z,6.03
2023-10-24T21:12:38.077Z,5.33
2023-10-24T21:15:12.261Z,5.17
2023-10-24T21:17:45.301Z,5.97
2023-10-24T21:20:19.488Z,6.77
2023-10-24T21:22:51.524Z,7.20
2023-10-24T21:25:23.119Z,6.33
2023-10-24T21:27:54.796Z,6.60
2023-10-24T21:30:26.424Z,7.20
2023-10-24T21:32:58.137Z,11.47
2023-10-24T21:35:30.116Z,7.47
2023-10-24T21:38:03.858Z,32.83
2023-10-24T21:40:36.195Z,15.03
2023-10-24T21:43:07.936Z,7.27
2023-10-24T21:45:40.025Z,10.97
2023-10-24T21:48:11.559Z,6.20
2023-10-24T21:50:44.252Z,6.70
2023-10-24T21:53:15.716Z,11.40
2023-10-24T21:55:47.949Z,8.00
2023-10-24T21:58:19.455Z,8.27
2023-10-24T22:00:51.371Z,6.43
2023-10-24T22:03:23.845Z,9.17
2023-10-24T22:05:55.433Z,7.67
2023-10-24T22:08:27.109Z,21.07
2023-10-24T22:10:58.690Z,14.17
2023-10-24T22:13:31.007Z,18.83
2023-10-24T22:16:03.113Z,24.87
2023-10-24T22:18:34.762Z,10.43
2023-10-24T22:21:08.874Z,7.30
2023-10-24T22:23:40.530Z,9.97
2023-10-24T22:26:12.192Z,16.97
2023-10-24T22:28:44.013Z,7.90
2023-10-24T22:31:15.962Z,7.67
2023-10-24T22:33:47.550Z,8.30
2023-10-24T22:36:19.457Z,9.93
2023-10-24T22:38:51.176Z,10.67
2023-10-24T22:41:22.954Z,11.90
2023-10-24T22:43:54.513Z,10.30
2023-10-24T22:46:26.268Z,10.50
2023-10-24T22:48:58.209Z,8.43
2023-10-24T22:51:31.832Z,13.10
2023-10-24T22:54:05.494Z,22.60
2023-10-24T22:56:38.316Z,12.37
2023-10-24T22:59:09.867Z,14.00
2023-10-24T23:01:41.660Z,21.40
2023-10-24T23:04:14.005Z,15.70
2023-10-24T23:06:45.713Z,7.93
2023-10-24T23:09:17.357Z,8.97
2023-10-24T23:11:49.912Z,12.43
2023-10-24T23:14:21.854Z,21.77
2023-10-24T23:16:53.730Z,12.77
2023-10-24T23:19:25.645Z,12.27
2023-10-24T23:21:57.214Z,11.77
2023-10-24T23:24:28.974Z,12.43
2023-10-24T23:27:00.795Z,15.17
2023-10-24T23:29:32.688Z,18.63
2023-10-24T23:32:05.188Z,12.73
2023-10-24T23:34:36.890Z,14.40
2023-10-24T23:37:11.209Z,15.33
2023-10-24T23:39:43.199Z,12.23
2023-10-24T23:42:15.120Z,13.17
2023-10-24T23:44:46.702Z,12.57
2023-10-24T23:47:18.610Z,15.07
2023-10-24T23:49:50.451Z,15.80
2023-10-24T23:52:22.048Z,18.37
2023-10-24T23:54:54.267Z,14.90
2023-10-24T23:57:26.077Z,15.37
2023-10-24T23:59:58.313Z,14.13
